sensor_id;sensor_type;location;lat;lon;timestamp;temperature;humidity
1079;DHT22;528;47.872;11.478;2022-09-27T09:46:04;12.10;99.90
1079;DHT22;528;47.872;11.478;2022-09-27T09:59:01;12.00;99.90
1079;DHT22;528;47.872;11.478;2022-09-27T10:10:53;11.90;99.90
1079;DHT22;528;47.872;11.478;2022-09-27T10:13:29;11.80;99.90
1079;DHT22;528;47.872;11.478;2022-09-27T10:16:16;11.70;99.90
1079;DHT22;528;47.872;11.478;2022-09-27T10:19:26;11.70;99.90
1079;DHT22;528;47.872;11.478;2022-09-27T10:23:18;11.80;99.90
1079;DHT22;528;47.872;11.478;2022-09-27T10:57:05;11.40;99.90
1079;DHT22;528;47.872;11.478;2022-09-27T10:59:34;11.40;99.90
1079;DHT22;528;47.872;11.478;2022-09-27T11:02:15;11.50;99.90
1079;DHT22;528;47.872;11.478;2022-09-27T11:05:04;11.50;99.90
1079;DHT22;528;47.872;11.478;2022-09-27T11:07:35;11.50;99.90
1079;DHT22;528;47.872;11.478;2022-09-27T15:48:13;12.00;99.90
1079;DHT22;528;47.872;11.478;2022-09-27T17:56:46;11.00;99.90
1079;DHT22;528;47.872;11.478;2022-09-27T18:02:03;10.90;99.90
1079;DHT22;528;47.872;11.478;2022-09-27T18:10:20;10.80;99.90
1079;DHT22;528;47.872;11.478;2022-09-27T18:12:50;10.80;99.90
1079;DHT22;528;47.872;11.478;2022-09-27T18:15:19;10.80;99.90
1079;DHT22;528;47.872;11.478;2022-09-27T18:25:52;10.80;99.90
1079;DHT22;528;47.872;11.478;2022-09-27T18:28:26;10.80;99.90
1079;DHT22;528;47.872;11.478;2022-09-27T18:30:54;10.80;99.90
1079;DHT22;528;47.872;11.478;2022-09-27T18:33:23;10.80;99.90
1079;DHT22;528;47.872;11.478;2022-09-27T18:35:53;10.90;99.90
1079;DHT22;528;47.872;11.478;2022-09-27T18:38:27;10.90;99.90
1079;DHT22;528;47.872;11.478;2022-09-27T18:53:59;10.80;99.90
1079;DHT22;528;47.872;11.478;2022-09-27T18:59:02;10.60;99.90
1079;DHT22;528;47.872;11.478;2022-09-27T19:01:39;10.50;99.90
1079;DHT22;528;47.872;11.478;2022-09-27T19:04:15;10.30;99.90
1079;DHT22;528;47.872;11.478;2022-09-27T19:06:51;10.40;99.90
1079;DHT22;528;47.872;11.478;2022-09-27T19:09:24;10.20;99.90
1079;DHT22;528;47.872;11.478;2022-09-27T19:12:17;10.10;99.90
1079;DHT22;528;47.872;11.478;2022-09-27T19:15:07;10.10;99.90
1079;DHT22;528;47.872;11.478;2022-09-27T19:49:01;9.80;99.90
1079;DHT22;528;47.872;11.478;2022-09-27T19:51:30;9.80;99.90
1079;DHT22;528;47.872;11.478;2022-09-27T20:00:06;9.80;99.90
1079;DHT22;528;47.872;11.478;2022-09-27T20:03:07;9.90;99.90
1079;DHT22;528;47.872;11.478;2022-09-27T20:05:51;9.90;99.90
1079;DHT22;528;47.872;11.478;2022-09-27T20:10:58;9.80;99.90
1079;DHT22;528;47.872;11.478;2022-09-27T20:26:45;9.80;99.90
1079;DHT22;528;47.872;11.478;2022-09-27T20:29:26;9.80;99.90
1079;DHT22;528;47.872;11.478;2022-09-27T20:34:45;9.80;99.90
1079;DHT22;528;47.872;11.478;2022-09-27T21:25:42;9.80;99.90
1079;DHT22;528;47.872;11.478;2022-09-27T22:41:11;10.20;99.90
1079;DHT22;528;47.872;11.478;2022-09-27T22:43:40;10.20;99.90
1079;DHT22;528;47.872;11.478;2022-09-27T22:48:46;10.30;99.90
1079;DHT22;528;47.872;11.478;2022-09-27T22:51:15;10.40;99.90
1079;DHT22;528;47.872;11.478;2022-09-27T22:53:43;10.40;99.90
1079;DHT22;528;47.872;11.478;2022-09-27T22:56:15;10.40;99.90
1079;DHT22;528;47.872;11.478;2022-09-27T22:58:44;10.30;99.90
1079;DHT22;528;47.872;11.478;2022-09-27T23:01:15;10.30;99.90
1079;DHT22;528;47.872;11.478;2022-09-27T23:03:43;10.40;99.90
1079;DHT22;528;47.872;11.478;2022-09-27T23:06:11;10.40;99.90
1079;DHT22;528;47.872;11.478;2022-09-27T23:08:39;10.40;99.90
1079;DHT22;528;47.872;11.478;2022-09-27T23:11:11;10.40;99.90
1079;DHT22;528;47.872;11.478;2022-09-27T23:13:42;10.40;99.90
1079;DHT22;528;47.872;11.478;2022-09-27T23:16:12;10.50;99.90
1079;DHT22;528;47.872;11.478;2022-09-27T23:18:40;10.50;99.90
1079;DHT22;528;47.872;11.478;2022-09-27T23:21:10;10.60;99.90
1079;DHT22;528;47.872;11.478;2022-09-27T23:23:46;10.60;99.90
1079;DHT22;528;47.872;11.478;2022-09-27T23:32:53;10.60;99.90
1079;DHT22;528;47.872;11.478;2022-09-27T23:35:22;10.60;99.90
1079;DHT22;528;47.872;11.478;2022-09-27T23:38:06;10.50;99.90
1079;DHT22;528;47.872;11.478;2022-09-27T23:40:47;10.60;99.90
1079;DHT22;528;47.872;11.478;2022-09-27T23:43:21;10.60;99.90
1079;DHT22;528;47.872;11.478;2022-09-27T23:45:49;10.60;99.90
1079;DHT22;528;47.872;11.478;2022-09-27T23:48:23;10.50;99.90
1079;DHT22;528;47.872;11.478;2022-09-27T23:50:53;10.50;99.90
1079;DHT22;528;47.872;11.478;2022-09-27T23:53:23;10.50;99.90
1079;DHT22;528;47.872;11.478;2022-09-27T23:56:02;10.60;99.90
1079;DHT22;528;47.872;11.478;2022-09-27T23:58:31;10.60;99.90
